RYR4CX LERS-EGSS
Flight info
| Callsign | RYR4CX |
|---|---|
| Flight time | 1h 47m |
| Altitude | 32000 |
| Route | NATPI DCT EVNAM DCT TUPAR UN861 DIKRO UM185 TELTU |
| Aircraft | B738/M-SDE2E3FGHIRWXY/LB1 |
Departure
| Time | 2026-04-23 13:21 |
|---|---|
| Airport | Reus Airport (LERS) |
Arrival
| Time | 2026-04-23 15:09 |
|---|---|
| Airport | London Stansted Airport (EGSS) |
| Time | Latitude | Longitude | Altitude | Speed | Heading |
|---|---|---|---|---|---|
| 2026-04-23 12:46 | 41.14698 | 1.15681 | 240 ft | 0 kts | 339° |
| 2026-04-23 13:14 | 41.14675 | 1.15693 | 240 ft | 4 kts | 339° |
| 2026-04-23 13:14 | 41.14651 | 1.15705 | 240 ft | 4 kts | 330° |
| 2026-04-23 13:14 | 41.14635 | 1.15728 | 240 ft | 4 kts | 278° |
| 2026-04-23 13:15 | 41.14637 | 1.15762 | 240 ft | 3 kts | 250° |
| 2026-04-23 13:15 | 41.14639 | 1.15767 | 240 ft | 0 kts | 249° |
| 2026-04-23 13:18 | 41.14636 | 1.15756 | 240 ft | 4 kts | 248° |
| 2026-04-23 13:18 | 41.14618 | 1.15696 | 240 ft | 8 kts | 249° |
| 2026-04-23 13:18 | 41.14598 | 1.15627 | 240 ft | 8 kts | 249° |
| 2026-04-23 13:19 | 41.14570 | 1.15568 | 240 ft | 8 kts | 211° |
| 2026-04-23 13:19 | 41.14530 | 1.15572 | 240 ft | 2 kts | 158° |
| 2026-04-23 13:19 | 41.14529 | 1.15572 | 240 ft | 0 kts | 158° |
| 2026-04-23 13:20 | 41.14517 | 1.15578 | 240 ft | 7 kts | 158° |
| 2026-04-23 13:20 | 41.14452 | 1.15613 | 240 ft | 11 kts | 158° |
| 2026-04-23 13:20 | 41.14436 | 1.15672 | 240 ft | 9 kts | 70° |
| 2026-04-23 13:21 | 41.14537 | 1.16022 | 240 ft | 75 kts | 69° |
| 2026-04-23 13:21 | 41.14803 | 1.16940 | 241 ft | 135 kts | 68° |
| 2026-04-23 13:21 | 41.15192 | 1.18211 | 610 ft | 151 kts | 73° |
| 2026-04-23 13:21 | 41.15578 | 1.19477 | 1417 ft | 147 kts | 71° |
| 2026-04-23 13:22 | 41.15956 | 1.20745 | 2152 ft | 153 kts | 72° |
| 2026-04-23 13:22 | 41.16380 | 1.22212 | 2509 ft | 184 kts | 71° |
| 2026-04-23 13:22 | 41.16864 | 1.23856 | 2963 ft | 198 kts | 70° |
| 2026-04-23 13:22 | 41.17391 | 1.25579 | 3562 ft | 203 kts | 65° |
| 2026-04-23 13:23 | 41.18387 | 1.26949 | 4008 ft | 231 kts | 29° |
| 2026-04-23 13:23 | 41.20074 | 1.27383 | 4352 ft | 261 kts | 6° |
| 2026-04-23 13:23 | 41.21916 | 1.27484 | 5095 ft | 269 kts | 6° |
| 2026-04-23 13:23 | 41.23802 | 1.27578 | 5861 ft | 275 kts | 4° |
| 2026-04-23 13:24 | 41.25742 | 1.27680 | 6569 ft | 283 kts | 3° |
| 2026-04-23 13:24 | 41.27747 | 1.27797 | 7374 ft | 284 kts | 2° |
| 2026-04-23 13:24 | 41.29700 | 1.27919 | 8194 ft | 286 kts | 0° |
| 2026-04-23 13:24 | 41.31697 | 1.28051 | 8991 ft | 288 kts | 0° |
| 2026-04-23 13:25 | 41.33727 | 1.28192 | 9866 ft | 289 kts | 360° |
| 2026-04-23 13:25 | 41.35716 | 1.28336 | 10549 ft | 295 kts | 359° |
| 2026-04-23 13:25 | 41.37849 | 1.28487 | 10752 ft | 319 kts | 359° |
| 2026-04-23 13:25 | 41.40142 | 1.28650 | 10939 ft | 341 kts | 360° |
| 2026-04-23 13:26 | 41.42563 | 1.28830 | 11358 ft | 354 kts | 360° |
| 2026-04-23 13:26 | 41.45037 | 1.29022 | 12055 ft | 357 kts | 360° |
| 2026-04-23 13:26 | 41.47522 | 1.29216 | 12834 ft | 359 kts | 0° |
| 2026-04-23 13:26 | 41.50031 | 1.29411 | 13571 ft | 363 kts | 0° |
| 2026-04-23 13:27 | 41.52560 | 1.29607 | 14296 ft | 366 kts | 360° |
| 2026-04-23 13:27 | 41.55109 | 1.29804 | 15021 ft | 368 kts | 360° |
| 2026-04-23 13:27 | 41.57667 | 1.30003 | 15817 ft | 369 kts | 0° |
| 2026-04-23 13:27 | 41.60232 | 1.30202 | 16617 ft | 369 kts | 0° |
| 2026-04-23 13:28 | 41.62808 | 1.30400 | 17318 ft | 373 kts | 1° |
| 2026-04-23 13:28 | 41.65413 | 1.30601 | 17987 ft | 376 kts | 0° |
| 2026-04-23 13:28 | 41.68028 | 1.30803 | 18684 ft | 378 kts | 1° |
| 2026-04-23 13:28 | 41.70667 | 1.31006 | 19251 ft | 382 kts | 0° |
| 2026-04-23 13:29 | 41.73332 | 1.31212 | 19813 ft | 385 kts | 0° |
| 2026-04-23 13:29 | 41.76011 | 1.31420 | 20410 ft | 388 kts | 0° |
| 2026-04-23 13:29 | 41.78716 | 1.31629 | 20954 ft | 391 kts | 0° |
| 2026-04-23 13:29 | 41.81448 | 1.31841 | 21506 ft | 394 kts | 0° |
| 2026-04-23 13:30 | 41.84195 | 1.32054 | 22047 ft | 397 kts | 0° |
| 2026-04-23 13:30 | 41.86960 | 1.32269 | 22606 ft | 399 kts | 0° |
| 2026-04-23 13:30 | 41.89743 | 1.32485 | 23152 ft | 402 kts | 0° |
| 2026-04-23 13:30 | 41.92544 | 1.32703 | 23671 ft | 405 kts | 0° |
| 2026-04-23 13:31 | 41.95366 | 1.32922 | 24106 ft | 407 kts | 360° |
| 2026-04-23 13:31 | 41.98202 | 1.33144 | 24546 ft | 410 kts | 360° |
| 2026-04-23 13:31 | 42.01056 | 1.33367 | 24983 ft | 412 kts | 360° |
| 2026-04-23 13:31 | 42.03924 | 1.33591 | 25410 ft | 414 kts | 360° |
| 2026-04-23 13:32 | 42.06809 | 1.33816 | 25818 ft | 417 kts | 360° |
| 2026-04-23 13:32 | 42.09713 | 1.34043 | 26236 ft | 419 kts | 360° |
| 2026-04-23 13:32 | 42.12630 | 1.34272 | 26629 ft | 421 kts | 359° |
| 2026-04-23 13:32 | 42.15564 | 1.34502 | 27040 ft | 424 kts | 360° |
| 2026-04-23 13:33 | 42.18515 | 1.34732 | 27432 ft | 426 kts | 359° |
| 2026-04-23 13:33 | 42.21479 | 1.34868 | 27907 ft | 425 kts | 355° |
| 2026-04-23 13:33 | 42.24394 | 1.34443 | 28450 ft | 419 kts | 347° |
| 2026-04-23 13:33 | 42.27264 | 1.33779 | 28961 ft | 419 kts | 347° |
| 2026-04-23 13:34 | 42.30128 | 1.33106 | 29487 ft | 417 kts | 347° |
| 2026-04-23 13:34 | 42.32944 | 1.32451 | 30034 ft | 415 kts | 347° |
| 2026-04-23 13:34 | 42.35818 | 1.31792 | 30565 ft | 412 kts | 347° |
| 2026-04-23 13:34 | 42.38602 | 1.31162 | 30942 ft | 411 kts | 347° |
| 2026-04-23 13:35 | 42.41427 | 1.30528 | 31267 ft | 412 kts | 347° |
| 2026-04-23 13:35 | 42.44262 | 1.29893 | 31622 ft | 412 kts | 347° |
| 2026-04-23 13:35 | 42.47088 | 1.29262 | 32031 ft | 411 kts | 347° |
| 2026-04-23 13:35 | 42.49918 | 1.28629 | 32162 ft | 416 kts | 347° |
| 2026-04-23 13:36 | 42.52785 | 1.27986 | 32172 ft | 418 kts | 347° |
| 2026-04-23 13:36 | 42.58473 | 1.26713 | 32152 ft | 410 kts | 347° |
| 2026-04-23 13:37 | 42.64106 | 1.25447 | 32162 ft | 412 kts | 347° |
| 2026-04-23 13:37 | 42.69782 | 1.24169 | 32125 ft | 415 kts | 347° |
| 2026-04-23 13:38 | 42.75506 | 1.23041 | 32130 ft | 417 kts | 350° |
| 2026-04-23 13:38 | 42.81275 | 1.22278 | 32121 ft | 416 kts | 351° |
| 2026-04-23 13:39 | 42.87033 | 1.21546 | 32104 ft | 415 kts | 351° |
| 2026-04-23 13:39 | 42.92773 | 1.20782 | 32093 ft | 414 kts | 351° |
| 2026-04-23 13:40 | 42.98496 | 1.19999 | 32110 ft | 413 kts | 351° |
| 2026-04-23 13:40 | 43.04212 | 1.19209 | 32100 ft | 412 kts | 351° |
| 2026-04-23 13:41 | 43.09919 | 1.18419 | 32090 ft | 412 kts | 351° |
| 2026-04-23 13:41 | 43.15620 | 1.17628 | 32087 ft | 411 kts | 351° |
| 2026-04-23 13:42 | 43.21272 | 1.16843 | 32083 ft | 411 kts | 350° |
| 2026-04-23 13:42 | 43.26958 | 1.16052 | 32092 ft | 411 kts | 351° |
| 2026-04-23 13:43 | 43.32641 | 1.15260 | 32094 ft | 411 kts | 351° |
| 2026-04-23 13:43 | 43.38331 | 1.14465 | 32083 ft | 411 kts | 351° |
| 2026-04-23 13:44 | 43.44028 | 1.13668 | 32114 ft | 412 kts | 351° |
| 2026-04-23 13:44 | 43.49744 | 1.12867 | 32105 ft | 414 kts | 351° |
| 2026-04-23 13:45 | 43.54546 | 1.12193 | 32112 ft | 415 kts | 351° |
| 2026-04-23 13:45 | 43.61167 | 1.10847 | 32117 ft | 412 kts | 340° |
| 2026-04-23 13:46 | 43.66444 | 1.07883 | 32123 ft | 410 kts | 334° |
| 2026-04-23 13:46 | 43.71657 | 1.04707 | 32117 ft | 410 kts | 334° |
| 2026-04-23 13:47 | 43.76881 | 1.01544 | 32113 ft | 410 kts | 334° |
| 2026-04-23 13:47 | 43.82102 | 0.98399 | 32111 ft | 409 kts | 334° |
| 2026-04-23 13:48 | 43.87288 | 0.95280 | 32109 ft | 409 kts | 334° |
| 2026-04-23 13:48 | 43.92498 | 0.92142 | 32112 ft | 408 kts | 334° |
| 2026-04-23 13:49 | 43.97691 | 0.89008 | 32099 ft | 407 kts | 334° |
| 2026-04-23 13:49 | 44.02881 | 0.85870 | 32112 ft | 406 kts | 334° |
| 2026-04-23 13:50 | 44.08065 | 0.82729 | 32102 ft | 406 kts | 334° |
| 2026-04-23 13:50 | 44.13241 | 0.79587 | 32103 ft | 406 kts | 334° |
| 2026-04-23 13:51 | 44.18415 | 0.76440 | 32106 ft | 406 kts | 334° |
| 2026-04-23 13:51 | 44.23591 | 0.73286 | 32111 ft | 406 kts | 334° |
| 2026-04-23 13:52 | 44.28778 | 0.70119 | 32109 ft | 408 kts | 334° |
| 2026-04-23 13:52 | 44.33986 | 0.66933 | 32109 ft | 409 kts | 334° |
| 2026-04-23 13:53 | 44.39203 | 0.63735 | 32110 ft | 410 kts | 334° |
| 2026-04-23 13:53 | 44.44441 | 0.60519 | 32103 ft | 411 kts | 334° |
| 2026-04-23 13:54 | 44.49679 | 0.57296 | 32101 ft | 411 kts | 334° |
| 2026-04-23 13:54 | 44.54918 | 0.54066 | 32104 ft | 411 kts | 334° |
| 2026-04-23 13:55 | 44.60151 | 0.50833 | 32105 ft | 411 kts | 334° |
| 2026-04-23 13:55 | 44.65381 | 0.47596 | 32102 ft | 410 kts | 334° |
| 2026-04-23 13:56 | 44.70599 | 0.44360 | 32108 ft | 410 kts | 334° |
| 2026-04-23 13:56 | 44.75807 | 0.41124 | 32101 ft | 409 kts | 334° |
| 2026-04-23 13:57 | 44.81008 | 0.37885 | 32093 ft | 408 kts | 334° |
| 2026-04-23 13:57 | 44.86202 | 0.34645 | 32103 ft | 408 kts | 334° |
| 2026-04-23 13:58 | 44.91398 | 0.31396 | 32108 ft | 409 kts | 334° |
| 2026-04-23 13:58 | 44.96604 | 0.28135 | 32105 ft | 410 kts | 334° |
| 2026-04-23 13:59 | 45.01829 | 0.24856 | 32115 ft | 412 kts | 334° |
| 2026-04-23 13:59 | 45.07069 | 0.21560 | 32110 ft | 412 kts | 334° |
| 2026-04-23 14:00 | 45.11427 | 0.18815 | 32107 ft | 413 kts | 334° |
| 2026-04-23 14:00 | 45.17563 | 0.14941 | 32110 ft | 413 kts | 334° |
| 2026-04-23 14:01 | 45.22805 | 0.11624 | 32117 ft | 413 kts | 334° |
| 2026-04-23 14:01 | 45.27163 | 0.08862 | 32107 ft | 413 kts | 334° |
| 2026-04-23 14:02 | 45.33253 | 0.04994 | 32108 ft | 412 kts | 334° |
| 2026-04-23 14:02 | 45.38488 | 0.01661 | 32115 ft | 412 kts | 334° |
| 2026-04-23 14:03 | 45.43714 | -0.01672 | 32096 ft | 412 kts | 334° |
| 2026-04-23 14:03 | 45.48091 | -0.04469 | 32117 ft | 412 kts | 334° |
| 2026-04-23 14:04 | 45.53319 | -0.07817 | 32124 ft | 412 kts | 334° |
| 2026-04-23 14:04 | 45.58516 | -0.11151 | 32135 ft | 413 kts | 334° |
| 2026-04-23 14:05 | 45.63758 | -0.14521 | 32135 ft | 413 kts | 334° |
| 2026-04-23 14:05 | 45.69008 | -0.17904 | 32131 ft | 414 kts | 334° |
| 2026-04-23 14:06 | 45.74263 | -0.21296 | 32122 ft | 415 kts | 333° |
| 2026-04-23 14:06 | 45.79522 | -0.24698 | 32134 ft | 415 kts | 333° |
| 2026-04-23 14:07 | 45.84782 | -0.28107 | 32126 ft | 415 kts | 333° |
| 2026-04-23 14:07 | 45.92666 | -0.33232 | 32130 ft | 414 kts | 333° |
| 2026-04-23 14:08 | 45.97912 | -0.36650 | 32143 ft | 414 kts | 333° |
| 2026-04-23 14:08 | 46.03152 | -0.40072 | 32138 ft | 414 kts | 333° |
| 2026-04-23 14:09 | 46.08389 | -0.43499 | 32141 ft | 413 kts | 333° |
| 2026-04-23 14:09 | 46.13619 | -0.46928 | 32142 ft | 413 kts | 333° |
| 2026-04-23 14:10 | 46.18841 | -0.50361 | 32152 ft | 412 kts | 333° |
| 2026-04-23 14:10 | 46.24054 | -0.53793 | 32143 ft | 412 kts | 333° |
| 2026-04-23 14:11 | 46.29224 | -0.57205 | 32148 ft | 411 kts | 333° |
| 2026-04-23 14:11 | 46.34424 | -0.60644 | 32152 ft | 411 kts | 333° |
| 2026-04-23 14:12 | 46.39618 | -0.64085 | 32156 ft | 410 kts | 333° |
| 2026-04-23 14:12 | 46.45024 | -0.66725 | 32149 ft | 414 kts | 348° |
| 2026-04-23 14:13 | 46.50756 | -0.67698 | 32147 ft | 415 kts | 351° |
| 2026-04-23 14:13 | 46.56497 | -0.68594 | 32151 ft | 415 kts | 351° |
| 2026-04-23 14:14 | 46.62237 | -0.69526 | 32149 ft | 415 kts | 351° |
| 2026-04-23 14:14 | 46.67969 | -0.70484 | 32153 ft | 415 kts | 351° |
| 2026-04-23 14:15 | 46.73696 | -0.71450 | 32163 ft | 414 kts | 351° |
| 2026-04-23 14:15 | 46.79418 | -0.72420 | 32160 ft | 414 kts | 351° |
| 2026-04-23 14:16 | 46.85139 | -0.73391 | 32160 ft | 414 kts | 351° |
| 2026-04-23 14:16 | 46.90861 | -0.74364 | 32158 ft | 414 kts | 351° |
| 2026-04-23 14:17 | 46.96583 | -0.75338 | 32169 ft | 414 kts | 351° |
| 2026-04-23 14:17 | 47.02303 | -0.76315 | 32168 ft | 414 kts | 351° |
| 2026-04-23 14:18 | 47.08027 | -0.77294 | 32168 ft | 414 kts | 351° |
| 2026-04-23 14:18 | 47.13739 | -0.78273 | 32174 ft | 413 kts | 351° |
| 2026-04-23 14:19 | 47.19417 | -0.79249 | 32183 ft | 413 kts | 351° |
| 2026-04-23 14:19 | 47.25161 | -0.80238 | 32175 ft | 413 kts | 351° |
| 2026-04-23 14:20 | 47.30857 | -0.81221 | 32180 ft | 412 kts | 351° |
| 2026-04-23 14:20 | 47.36545 | -0.82192 | 32184 ft | 412 kts | 352° |
| 2026-04-23 14:21 | 47.42279 | -0.82554 | 32195 ft | 413 kts | 356° |
| 2026-04-23 14:21 | 47.48020 | -0.82640 | 32192 ft | 412 kts | 356° |
| 2026-04-23 14:22 | 47.53715 | -0.82757 | 32190 ft | 412 kts | 356° |
| 2026-04-23 14:22 | 47.59440 | -0.82926 | 32204 ft | 411 kts | 355° |
| 2026-04-23 14:23 | 47.65166 | -0.83117 | 32200 ft | 411 kts | 355° |
| 2026-04-23 14:23 | 47.70885 | -0.83315 | 32200 ft | 411 kts | 355° |
| 2026-04-23 14:24 | 47.76597 | -0.83513 | 32200 ft | 411 kts | 355° |
| 2026-04-23 14:24 | 47.82312 | -0.83711 | 32233 ft | 411 kts | 355° |
| 2026-04-23 14:25 | 47.88027 | -0.83909 | 32228 ft | 410 kts | 355° |
| 2026-04-23 14:25 | 47.93730 | -0.84107 | 32240 ft | 410 kts | 355° |
| 2026-04-23 14:26 | 47.99424 | -0.84305 | 32240 ft | 409 kts | 355° |
| 2026-04-23 14:26 | 48.05111 | -0.84503 | 32246 ft | 409 kts | 355° |
| 2026-04-23 14:27 | 48.10790 | -0.84702 | 32238 ft | 408 kts | 355° |
| 2026-04-23 14:27 | 48.16426 | -0.84899 | 32238 ft | 408 kts | 355° |
| 2026-04-23 14:28 | 48.22091 | -0.85098 | 32234 ft | 407 kts | 355° |
| 2026-04-23 14:28 | 48.27753 | -0.85297 | 32240 ft | 407 kts | 355° |
| 2026-04-23 14:29 | 48.33411 | -0.85497 | 32237 ft | 406 kts | 355° |
| 2026-04-23 14:29 | 48.39057 | -0.85696 | 32236 ft | 406 kts | 355° |
| 2026-04-23 14:30 | 48.44693 | -0.85896 | 32253 ft | 405 kts | 355° |
| 2026-04-23 14:30 | 48.50322 | -0.86095 | 32247 ft | 404 kts | 355° |
| 2026-04-23 14:31 | 48.55947 | -0.86296 | 32248 ft | 404 kts | 355° |
| 2026-04-23 14:31 | 48.61568 | -0.86496 | 32250 ft | 404 kts | 355° |
| 2026-04-23 14:32 | 48.67190 | -0.86697 | 32268 ft | 404 kts | 355° |
| 2026-04-23 14:32 | 48.72813 | -0.86899 | 32247 ft | 404 kts | 355° |
| 2026-04-23 14:33 | 48.78428 | -0.87100 | 32262 ft | 404 kts | 355° |
| 2026-04-23 14:33 | 48.84040 | -0.87302 | 32267 ft | 403 kts | 355° |
| 2026-04-23 14:34 | 48.89642 | -0.87504 | 32267 ft | 403 kts | 355° |
| 2026-04-23 14:34 | 48.95250 | -0.87706 | 32272 ft | 403 kts | 355° |
| 2026-04-23 14:35 | 49.00851 | -0.87910 | 32270 ft | 402 kts | 355° |
| 2026-04-23 14:35 | 49.06452 | -0.88114 | 32261 ft | 403 kts | 355° |
| 2026-04-23 14:36 | 49.12027 | -0.88315 | 32291 ft | 404 kts | 356° |
| 2026-04-23 14:36 | 49.17665 | -0.88521 | 32285 ft | 406 kts | 356° |
| 2026-04-23 14:37 | 49.23311 | -0.88728 | 32286 ft | 406 kts | 356° |
| 2026-04-23 14:37 | 49.28971 | -0.88935 | 32292 ft | 407 kts | 356° |
| 2026-04-23 14:38 | 49.34636 | -0.89143 | 32297 ft | 407 kts | 356° |
| 2026-04-23 14:38 | 49.40298 | -0.89351 | 32293 ft | 407 kts | 356° |
| 2026-04-23 14:39 | 49.45943 | -0.89559 | 32301 ft | 405 kts | 356° |
| 2026-04-23 14:39 | 49.51573 | -0.89767 | 32300 ft | 404 kts | 356° |
| 2026-04-23 14:40 | 49.57192 | -0.89975 | 32312 ft | 403 kts | 356° |
| 2026-04-23 14:40 | 49.62799 | -0.90183 | 32316 ft | 403 kts | 356° |
| 2026-04-23 14:41 | 49.68396 | -0.90392 | 32320 ft | 402 kts | 356° |
| 2026-04-23 14:41 | 49.73991 | -0.90601 | 32323 ft | 402 kts | 356° |
| 2026-04-23 14:42 | 49.79592 | -0.90275 | 32353 ft | 404 kts | 3° |
| 2026-04-23 14:42 | 49.85194 | -0.89384 | 32341 ft | 405 kts | 3° |
| 2026-04-23 14:43 | 49.90800 | -0.88533 | 32339 ft | 405 kts | 3° |
| 2026-04-23 14:43 | 49.96409 | -0.87733 | 32279 ft | 404 kts | 2° |
| 2026-04-23 14:44 | 49.99206 | -0.87338 | 32001 ft | 402 kts | 3° |
| 2026-04-23 14:44 | 50.01975 | -0.86944 | 31751 ft | 397 kts | 3° |
| 2026-04-23 14:44 | 50.04710 | -0.86554 | 31505 ft | 393 kts | 3° |
| 2026-04-23 14:44 | 50.07430 | -0.86167 | 31265 ft | 392 kts | 3° |
| 2026-04-23 14:45 | 50.10137 | -0.85781 | 31022 ft | 390 kts | 4° |
| 2026-04-23 14:45 | 50.12831 | -0.85397 | 30740 ft | 386 kts | 4° |
| 2026-04-23 14:45 | 50.15491 | -0.85016 | 30362 ft | 382 kts | 4° |
| 2026-04-23 14:45 | 50.18124 | -0.84639 | 29883 ft | 378 kts | 4° |
| 2026-04-23 14:46 | 50.20725 | -0.84267 | 29447 ft | 373 kts | 4° |
| 2026-04-23 14:46 | 50.23299 | -0.83898 | 29009 ft | 369 kts | 5° |
| 2026-04-23 14:46 | 50.25845 | -0.83532 | 28579 ft | 366 kts | 5° |
| 2026-04-23 14:46 | 50.28367 | -0.83170 | 28168 ft | 362 kts | 5° |
| 2026-04-23 14:47 | 50.30866 | -0.82811 | 27715 ft | 359 kts | 5° |
| 2026-04-23 14:47 | 50.33346 | -0.82454 | 27331 ft | 356 kts | 5° |
| 2026-04-23 14:47 | 50.35799 | -0.82100 | 26939 ft | 353 kts | 6° |
| 2026-04-23 14:47 | 50.38240 | -0.81748 | 26521 ft | 352 kts | 6° |
| 2026-04-23 14:48 | 50.40671 | -0.81397 | 26133 ft | 350 kts | 6° |
| 2026-04-23 14:48 | 50.43098 | -0.81047 | 25718 ft | 350 kts | 7° |
| 2026-04-23 14:48 | 50.45517 | -0.80696 | 25325 ft | 359 kts | 7° |
| 2026-04-23 14:48 | 50.48047 | -0.80327 | 24886 ft | 370 kts | 8° |
| 2026-04-23 14:49 | 50.50606 | -0.79955 | 24465 ft | 368 kts | 7° |
| 2026-04-23 14:49 | 50.53155 | -0.79585 | 24024 ft | 367 kts | 7° |
| 2026-04-23 14:49 | 50.54872 | -0.79335 | 23710 ft | 366 kts | 8° |
| 2026-04-23 14:49 | 50.58217 | -0.78847 | 23093 ft | 363 kts | 7° |
| 2026-04-23 14:50 | 50.60721 | -0.78482 | 22667 ft | 360 kts | 8° |
| 2026-04-23 14:50 | 50.63204 | -0.78120 | 22274 ft | 357 kts | 8° |
| 2026-04-23 14:50 | 50.64868 | -0.77877 | 21977 ft | 355 kts | 8° |
| 2026-04-23 14:50 | 50.67313 | -0.77519 | 21602 ft | 351 kts | 8° |
| 2026-04-23 14:51 | 50.69739 | -0.77164 | 21203 ft | 349 kts | 8° |
| 2026-04-23 14:51 | 50.72117 | -0.76815 | 20818 ft | 347 kts | 8° |
| 2026-04-23 14:51 | 50.74543 | -0.76459 | 20428 ft | 344 kts | 8° |
| 2026-04-23 14:51 | 50.76920 | -0.76109 | 20043 ft | 343 kts | 8° |
| 2026-04-23 14:52 | 50.79285 | -0.75761 | 19663 ft | 341 kts | 8° |
| 2026-04-23 14:52 | 50.81589 | -0.75262 | 19324 ft | 334 kts | 19° |
| 2026-04-23 14:52 | 50.83743 | -0.74011 | 19168 ft | 327 kts | 25° |
| 2026-04-23 14:52 | 50.85869 | -0.72612 | 18982 ft | 336 kts | 26° |
| 2026-04-23 14:53 | 50.88042 | -0.71158 | 18781 ft | 341 kts | 26° |
| 2026-04-23 14:53 | 50.90223 | -0.69708 | 18559 ft | 338 kts | 25° |
| 2026-04-23 14:53 | 50.92382 | -0.68286 | 18345 ft | 335 kts | 25° |
| 2026-04-23 14:53 | 50.94525 | -0.66884 | 18139 ft | 331 kts | 25° |
| 2026-04-23 14:54 | 50.96650 | -0.65500 | 17947 ft | 329 kts | 25° |
| 2026-04-23 14:54 | 50.98765 | -0.64125 | 17760 ft | 328 kts | 25° |
| 2026-04-23 14:54 | 51.00871 | -0.62757 | 17582 ft | 327 kts | 25° |
| 2026-04-23 14:54 | 51.02978 | -0.61390 | 17399 ft | 327 kts | 25° |
| 2026-04-23 14:55 | 51.05082 | -0.60023 | 17221 ft | 327 kts | 25° |
| 2026-04-23 14:55 | 51.07190 | -0.58653 | 17032 ft | 327 kts | 25° |
| 2026-04-23 14:55 | 51.09297 | -0.57282 | 16847 ft | 327 kts | 25° |
| 2026-04-23 14:55 | 51.11403 | -0.55911 | 16664 ft | 327 kts | 25° |
| 2026-04-23 14:56 | 51.13511 | -0.54538 | 16483 ft | 327 kts | 25° |
| 2026-04-23 14:56 | 51.15618 | -0.53165 | 16290 ft | 327 kts | 25° |
| 2026-04-23 14:56 | 51.17723 | -0.51791 | 16103 ft | 326 kts | 25° |
| 2026-04-23 14:56 | 51.19819 | -0.50422 | 15914 ft | 325 kts | 25° |
| 2026-04-23 14:57 | 51.21904 | -0.49058 | 15732 ft | 323 kts | 25° |
| 2026-04-23 14:57 | 51.23981 | -0.47699 | 15545 ft | 321 kts | 25° |
| 2026-04-23 14:57 | 51.26044 | -0.46347 | 15364 ft | 320 kts | 26° |
| 2026-04-23 14:57 | 51.28095 | -0.45002 | 15182 ft | 318 kts | 26° |
| 2026-04-23 14:58 | 51.30133 | -0.43665 | 14984 ft | 316 kts | 26° |
| 2026-04-23 14:58 | 51.32117 | -0.42228 | 14825 ft | 311 kts | 27° |
| 2026-04-23 14:58 | 51.34096 | -0.40866 | 14504 ft | 309 kts | 26° |
| 2026-04-23 14:58 | 51.36096 | -0.39531 | 13978 ft | 315 kts | 26° |
| 2026-04-23 14:59 | 51.38111 | -0.38080 | 13289 ft | 320 kts | 32° |
| 2026-04-23 14:59 | 51.40020 | -0.36234 | 12710 ft | 321 kts | 35° |
| 2026-04-23 14:59 | 51.41896 | -0.34295 | 12258 ft | 320 kts | 36° |
| 2026-04-23 14:59 | 51.43748 | -0.32356 | 11840 ft | 317 kts | 36° |
| 2026-04-23 15:00 | 51.45587 | -0.30420 | 11407 ft | 315 kts | 36° |
| 2026-04-23 15:00 | 51.47417 | -0.28488 | 10996 ft | 314 kts | 36° |
| 2026-04-23 15:00 | 51.49237 | -0.26561 | 10561 ft | 313 kts | 36° |
| 2026-04-23 15:00 | 51.51048 | -0.24638 | 10167 ft | 310 kts | 36° |
| 2026-04-23 15:01 | 51.52847 | -0.22726 | 9323 ft | 311 kts | 36° |
| 2026-04-23 15:01 | 51.54648 | -0.20817 | 8551 ft | 310 kts | 36° |
| 2026-04-23 15:01 | 51.56445 | -0.18921 | 7778 ft | 309 kts | 36° |
| 2026-04-23 15:01 | 51.58240 | -0.17028 | 7108 ft | 308 kts | 36° |
| 2026-04-23 15:02 | 51.60023 | -0.15146 | 6359 ft | 306 kts | 36° |
| 2026-04-23 15:02 | 51.61761 | -0.13328 | 6115 ft | 289 kts | 36° |
| 2026-04-23 15:02 | 51.63406 | -0.11617 | 5827 ft | 275 kts | 36° |
| 2026-04-23 15:02 | 51.64978 | -0.09992 | 5581 ft | 262 kts | 36° |
| 2026-04-23 15:03 | 51.66491 | -0.08441 | 5326 ft | 255 kts | 36° |
| 2026-04-23 15:03 | 51.67981 | -0.06912 | 5061 ft | 252 kts | 37° |
| 2026-04-23 15:03 | 51.69381 | -0.05249 | 4816 ft | 248 kts | 43° |
| 2026-04-23 15:03 | 51.70663 | -0.03430 | 4639 ft | 243 kts | 46° |
| 2026-04-23 15:04 | 51.71890 | -0.01579 | 4465 ft | 239 kts | 46° |
| 2026-04-23 15:04 | 51.73080 | 0.00228 | 4264 ft | 234 kts | 46° |
| 2026-04-23 15:04 | 51.74259 | 0.02014 | 3978 ft | 229 kts | 46° |
| 2026-04-23 15:04 | 51.75402 | 0.03736 | 3673 ft | 220 kts | 46° |
| 2026-04-23 15:05 | 51.76491 | 0.05381 | 3383 ft | 209 kts | 47° |
| 2026-04-23 15:05 | 51.77532 | 0.06953 | 3110 ft | 200 kts | 46° |
| 2026-04-23 15:05 | 51.78521 | 0.08445 | 2852 ft | 190 kts | 46° |
| 2026-04-23 15:05 | 51.79476 | 0.09887 | 2601 ft | 187 kts | 45° |
| 2026-04-23 15:06 | 51.80411 | 0.11294 | 2351 ft | 180 kts | 46° |
| 2026-04-23 15:06 | 51.81318 | 0.12665 | 2063 ft | 176 kts | 45° |
| 2026-04-23 15:06 | 51.82189 | 0.13976 | 1859 ft | 167 kts | 45° |
| 2026-04-23 15:06 | 51.83012 | 0.15218 | 1636 ft | 155 kts | 46° |
| 2026-04-23 15:07 | 51.83756 | 0.16338 | 1420 ft | 139 kts | 46° |
| 2026-04-23 15:07 | 51.84451 | 0.17387 | 1249 ft | 137 kts | 46° |
| 2026-04-23 15:07 | 51.85150 | 0.18439 | 1060 ft | 138 kts | 45° |
| 2026-04-23 15:07 | 51.85846 | 0.19492 | 871 ft | 136 kts | 46° |
| 2026-04-23 15:08 | 51.86541 | 0.20543 | 674 ft | 138 kts | 45° |
| 2026-04-23 15:08 | 51.87235 | 0.21583 | 512 ft | 138 kts | 44° |
| 2026-04-23 15:08 | 51.87943 | 0.22643 | 355 ft | 137 kts | 45° |
| 2026-04-23 15:09 | 51.88787 | 0.23926 | 349 ft | 37 kts | 51° |
| 2026-04-23 15:09 | 51.88871 | 0.24183 | 352 ft | 23 kts | 71° |
| 2026-04-23 15:09 | 51.88907 | 0.24376 | 354 ft | 9 kts | 74° |
| 2026-04-23 15:09 | 51.88917 | 0.24472 | 355 ft | 8 kts | 92° |
| 2026-04-23 15:10 | 51.88904 | 0.24533 | 354 ft | 9 kts | 99° |
| 2026-04-23 15:10 | 51.88963 | 0.24659 | 350 ft | 13 kts | 44° |
| 2026-04-23 15:10 | 51.89030 | 0.24759 | 350 ft | 13 kts | 41° |
| 2026-04-23 15:10 | 51.89094 | 0.24855 | 351 ft | 12 kts | 44° |
| 2026-04-23 15:11 | 51.89156 | 0.24949 | 351 ft | 12 kts | 42° |
| 2026-04-23 15:11 | 51.89215 | 0.25051 | 352 ft | 14 kts | 55° |
| 2026-04-23 15:11 | 51.89278 | 0.25197 | 351 ft | 16 kts | 48° |
| 2026-04-23 15:11 | 51.89358 | 0.25321 | 348 ft | 16 kts | 43° |
| 2026-04-23 15:12 | 51.89416 | 0.25455 | 351 ft | 15 kts | 95° |
| 2026-04-23 15:12 | 51.89370 | 0.25601 | 350 ft | 14 kts | 118° |
| 2026-04-23 15:12 | 51.89315 | 0.25706 | 350 ft | 11 kts | 133° |
| 2026-04-23 15:12 | 51.89278 | 0.25771 | 355 ft | 5 kts | 132° |
| 2026-04-23 15:13 | 51.89267 | 0.25790 | 348 ft | 1 kts | 132° |
| 2026-04-23 15:13 | 51.89265 | 0.25794 | 348 ft | 0 kts | 133° |
| 2026-04-23 15:14 | 51.89264 | 0.25795 | 355 ft | 1 kts | 131° |
| 2026-04-23 15:14 | 51.89261 | 0.25813 | 353 ft | 2 kts | 91° |
| 2026-04-23 15:15 | 51.89273 | 0.25845 | 350 ft | 3 kts | 49° |
| 2026-04-23 15:15 | 51.89280 | 0.25855 | 354 ft | 1 kts | 43° |
| 2026-04-23 15:15 | 51.89284 | 0.25862 | 353 ft | 1 kts | 44° |
| 2026-04-23 15:15 | 51.89289 | 0.25869 | 350 ft | 2 kts | 44° |
| 2026-04-23 15:16 | 51.89291 | 0.25872 | 349 ft | 0 kts | 44° |